sensor_id;sensor_type;location;lat;lon;timestamp;temperature;humidity
78297;DHT22;67555;47.660;19.622;2023-07-24T00:02:00;20.70;66.30
78297;DHT22;67555;47.660;19.622;2023-07-24T00:04:25;20.70;66.40
78297;DHT22;67555;47.660;19.622;2023-07-24T00:06:51;20.60;66.60
78297;DHT22;67555;47.660;19.622;2023-07-24T00:09:17;20.60;66.60
78297;DHT22;67555;47.660;19.622;2023-07-24T00:11:42;20.60;66.60
78297;DHT22;67555;47.660;19.622;2023-07-24T00:14:08;20.60;66.60
78297;DHT22;67555;47.660;19.622;2023-07-24T00:16:34;20.60;66.50
78297;DHT22;67555;47.660;19.622;2023-07-24T00:18:59;20.60;66.60
78297;DHT22;67555;47.660;19.622;2023-07-24T00:21:25;20.60;66.60
78297;DHT22;67555;47.660;19.622;2023-07-24T00:23:51;20.60;66.70
78297;DHT22;67555;47.660;19.622;2023-07-24T00:26:16;20.60;66.80
78297;DHT22;67555;47.660;19.622;2023-07-24T00:28:42;20.50;67.00
78297;DHT22;67555;47.660;19.622;2023-07-24T00:31:08;20.50;67.10
78297;DHT22;67555;47.660;19.622;2023-07-24T00:33:33;20.50;67.20
78297;DHT22;67555;47.660;19.622;2023-07-24T00:35:59;20.50;67.30
78297;DHT22;67555;47.660;19.622;2023-07-24T00:38:25;20.50;67.30
78297;DHT22;67555;47.660;19.622;2023-07-24T00:40:51;20.50;67.30
78297;DHT22;67555;47.660;19.622;2023-07-24T00:43:17;20.50;67.40
78297;DHT22;67555;47.660;19.622;2023-07-24T00:45:44;20.50;67.50
78297;DHT22;67555;47.660;19.622;2023-07-24T00:48:12;20.50;67.60
78297;DHT22;67555;47.660;19.622;2023-07-24T00:50:38;20.50;67.70
78297;DHT22;67555;47.660;19.622;2023-07-24T00:53:05;20.60;67.80
78297;DHT22;67555;47.660;19.622;2023-07-24T00:55:31;20.60;67.80
78297;DHT22;67555;47.660;19.622;2023-07-24T00:57:58;20.60;67.80
78297;DHT22;67555;47.660;19.622;2023-07-24T01:00:24;20.60;67.90
78297;DHT22;67555;47.660;19.622;2023-07-24T01:02:51;20.60;67.90
78297;DHT22;67555;47.660;19.622;2023-07-24T01:05:17;20.60;67.90
78297;DHT22;67555;47.660;19.622;2023-07-24T01:07:43;20.60;68.00
78297;DHT22;67555;47.660;19.622;2023-07-24T01:10:09;20.60;68.00
78297;DHT22;67555;47.660;19.622;2023-07-24T01:15:42;20.70;68.10
78297;DHT22;67555;47.660;19.622;2023-07-24T01:18:11;20.70;68.20
78297;DHT22;67555;47.660;19.622;2023-07-24T01:20:51;20.70;68.00
78297;DHT22;67555;47.660;19.622;2023-07-24T01:26:01;20.70;68.10
78297;DHT22;67555;47.660;19.622;2023-07-24T01:28:28;20.70;68.00
78297;DHT22;67555;47.660;19.622;2023-07-24T01:30:55;20.70;68.00
78297;DHT22;67555;47.660;19.622;2023-07-24T01:33:21;20.70;67.90
78297;DHT22;67555;47.660;19.622;2023-07-24T01:35:54;20.80;68.00
78297;DHT22;67555;47.660;19.622;2023-07-24T01:38:21;20.80;68.00
78297;DHT22;67555;47.660;19.622;2023-07-24T01:40:48;20.80;68.00
78297;DHT22;67555;47.660;19.622;2023-07-24T01:43:15;20.80;68.00
78297;DHT22;67555;47.660;19.622;2023-07-24T01:45:40;20.80;68.10
78297;DHT22;67555;47.660;19.622;2023-07-24T01:48:07;20.80;68.20
78297;DHT22;67555;47.660;19.622;2023-07-24T01:50:33;20.80;68.20
78297;DHT22;67555;47.660;19.622;2023-07-24T01:52:59;20.80;68.30
78297;DHT22;67555;47.660;19.622;2023-07-24T01:55:24;20.80;68.30
78297;DHT22;67555;47.660;19.622;2023-07-24T01:57:50;20.80;68.40
78297;DHT22;67555;47.660;19.622;2023-07-24T02:00:16;20.80;68.50
78297;DHT22;67555;47.660;19.622;2023-07-24T02:02:42;20.70;68.50
78297;DHT22;67555;47.660;19.622;2023-07-24T02:05:08;20.70;68.60
78297;DHT22;67555;47.660;19.622;2023-07-24T02:07:34;20.70;68.70
78297;DHT22;67555;47.660;19.622;2023-07-24T02:09:59;20.70;68.70
78297;DHT22;67555;47.660;19.622;2023-07-24T02:12:25;20.60;68.80
78297;DHT22;67555;47.660;19.622;2023-07-24T02:14:51;20.60;68.90
78297;DHT22;67555;47.660;19.622;2023-07-24T02:17:19;20.60;69.00
78297;DHT22;67555;47.660;19.622;2023-07-24T02:19:45;20.50;69.00
78297;DHT22;67555;47.660;19.622;2023-07-24T02:22:11;20.50;69.10
78297;DHT22;67555;47.660;19.622;2023-07-24T02:24:37;20.50;69.20
78297;DHT22;67555;47.660;19.622;2023-07-24T02:27:04;20.50;69.30
78297;DHT22;67555;47.660;19.622;2023-07-24T02:29:30;20.40;69.40
78297;DHT22;67555;47.660;19.622;2023-07-24T02:31:57;20.30;69.50
78297;DHT22;67555;47.660;19.622;2023-07-24T02:34:23;20.30;69.50
78297;DHT22;67555;47.660;19.622;2023-07-24T02:36:52;20.30;69.50
78297;DHT22;67555;47.660;19.622;2023-07-24T02:39:19;20.40;69.60
78297;DHT22;67555;47.660;19.622;2023-07-24T02:41:45;20.40;69.60
78297;DHT22;67555;47.660;19.622;2023-07-24T02:44:11;20.40;69.50
78297;DHT22;67555;47.660;19.622;2023-07-24T02:46:37;20.50;69.60
78297;DHT22;67555;47.660;19.622;2023-07-24T02:49:03;20.50;69.60
78297;DHT22;67555;47.660;19.622;2023-07-24T02:51:30;20.50;69.60
78297;DHT22;67555;47.660;19.622;2023-07-24T02:53:57;20.50;69.60
78297;DHT22;67555;47.660;19.622;2023-07-24T02:56:23;20.50;69.70
78297;DHT22;67555;47.660;19.622;2023-07-24T02:58:48;20.50;69.70
78297;DHT22;67555;47.660;19.622;2023-07-24T03:01:14;20.50;69.80
78297;DHT22;67555;47.660;19.622;2023-07-24T03:03:41;20.40;69.90
78297;DHT22;67555;47.660;19.622;2023-07-24T03:06:07;20.30;70.10
78297;DHT22;67555;47.660;19.622;2023-07-24T03:08:34;20.30;70.20
78297;DHT22;67555;47.660;19.622;2023-07-24T03:11:03;20.40;70.40
78297;DHT22;67555;47.660;19.622;2023-07-24T03:13:29;20.40;70.30
78297;DHT22;67555;47.660;19.622;2023-07-24T03:15:57;20.40;70.40
78297;DHT22;67555;47.660;19.622;2023-07-24T03:18:23;20.40;70.50
78297;DHT22;67555;47.660;19.622;2023-07-24T03:20:48;20.30;70.60
78297;DHT22;67555;47.660;19.622;2023-07-24T03:23:14;20.30;70.70
78297;DHT22;67555;47.660;19.622;2023-07-24T03:25:40;20.40;70.80
78297;DHT22;67555;47.660;19.622;2023-07-24T03:28:06;20.40;70.70
78297;DHT22;67555;47.660;19.622;2023-07-24T03:30:32;20.40;70.70
78297;DHT22;67555;47.660;19.622;2023-07-24T03:32:58;20.50;70.70
78297;DHT22;67555;47.660;19.622;2023-07-24T03:35:24;20.50;70.70
78297;DHT22;67555;47.660;19.622;2023-07-24T03:37:49;20.50;70.70
78297;DHT22;67555;47.660;19.622;2023-07-24T03:40:15;20.50;70.60
78297;DHT22;67555;47.660;19.622;2023-07-24T03:42:41;20.60;70.40
78297;DHT22;67555;47.660;19.622;2023-07-24T03:45:08;20.70;70.30
78297;DHT22;67555;47.660;19.622;2023-07-24T03:47:34;20.80;70.00
78297;DHT22;67555;47.660;19.622;2023-07-24T03:49:59;20.80;69.90
78297;DHT22;67555;47.660;19.622;2023-07-24T03:52:25;20.90;69.80
78297;DHT22;67555;47.660;19.622;2023-07-24T03:54:52;20.90;69.70
78297;DHT22;67555;47.660;19.622;2023-07-24T03:57:18;21.00;69.60
78297;DHT22;67555;47.660;19.622;2023-07-24T03:59:44;21.00;69.60
78297;DHT22;67555;47.660;19.622;2023-07-24T04:02:10;21.00;69.60
78297;DHT22;67555;47.660;19.622;2023-07-24T04:04:36;21.00;69.60
78297;DHT22;67555;47.660;19.622;2023-07-24T04:07:02;21.00;69.70
78297;DHT22;67555;47.660;19.622;2023-07-24T04:09:28;21.00;69.70
78297;DHT22;67555;47.660;19.622;2023-07-24T04:11:53;20.90;69.80
78297;DHT22;67555;47.660;19.622;2023-07-24T04:14:19;20.90;69.90
78297;DHT22;67555;47.660;19.622;2023-07-24T04:16:45;20.90;69.90
78297;DHT22;67555;47.660;19.622;2023-07-24T04:19:11;20.90;70.00
78297;DHT22;67555;47.660;19.622;2023-07-24T04:21:37;20.80;70.20
78297;DHT22;67555;47.660;19.622;2023-07-24T04:24:02;20.80;70.30
78297;DHT22;67555;47.660;19.622;2023-07-24T04:26:28;20.80;70.40
78297;DHT22;67555;47.660;19.622;2023-07-24T04:28:54;20.80;70.50
78297;DHT22;67555;47.660;19.622;2023-07-24T04:31:20;20.80;70.40
78297;DHT22;67555;47.660;19.622;2023-07-24T04:33:45;20.90;70.30
78297;DHT22;67555;47.660;19.622;2023-07-24T04:36:11;20.90;70.10
78297;DHT22;67555;47.660;19.622;2023-07-24T04:38:37;21.00;70.00
78297;DHT22;67555;47.660;19.622;2023-07-24T04:41:02;21.10;69.80
78297;DHT22;67555;47.660;19.622;2023-07-24T04:43:31;21.10;69.80
78297;DHT22;67555;47.660;19.622;2023-07-24T04:45:57;21.10;69.70
78297;DHT22;67555;47.660;19.622;2023-07-24T04:48:23;21.20;69.70
78297;DHT22;67555;47.660;19.622;2023-07-24T04:50:55;21.30;69.60
78297;DHT22;67555;47.660;19.622;2023-07-24T04:53:21;21.40;69.50
78297;DHT22;67555;47.660;19.622;2023-07-24T04:55:47;21.50;69.30
78297;DHT22;67555;47.660;19.622;2023-07-24T04:58:13;21.60;69.20
78297;DHT22;67555;47.660;19.622;2023-07-24T05:00:39;21.70;69.00
78297;DHT22;67555;47.660;19.622;2023-07-24T05:03:05;21.70;68.90
78297;DHT22;67555;47.660;19.622;2023-07-24T05:05:32;21.90;68.70
78297;DHT22;67555;47.660;19.622;2023-07-24T05:07:57;21.90;68.70
78297;DHT22;67555;47.660;19.622;2023-07-24T05:10:23;22.00;68.60
78297;DHT22;67555;47.660;19.622;2023-07-24T05:12:49;22.00;68.60
78297;DHT22;67555;47.660;19.622;2023-07-24T05:15:14;22.10;68.70
78297;DHT22;67555;47.660;19.622;2023-07-24T05:17:43;22.20;68.60
78297;DHT22;67555;47.660;19.622;2023-07-24T05:20:09;22.20;68.50
78297;DHT22;67555;47.660;19.622;2023-07-24T05:22:35;22.30;68.40
78297;DHT22;67555;47.660;19.622;2023-07-24T05:25:01;22.40;68.30
78297;DHT22;67555;47.660;19.622;2023-07-24T05:27:26;22.50;68.10
78297;DHT22;67555;47.660;19.622;2023-07-24T05:29:52;22.60;68.00
78297;DHT22;67555;47.660;19.622;2023-07-24T05:32:18;22.70;67.90
78297;DHT22;67555;47.660;19.622;2023-07-24T05:34:43;22.70;67.80
78297;DHT22;67555;47.660;19.622;2023-07-24T05:37:09;22.80;67.60
78297;DHT22;67555;47.660;19.622;2023-07-24T05:39:36;22.90;67.60
78297;DHT22;67555;47.660;19.622;2023-07-24T05:42:02;23.00;67.50
78297;DHT22;67555;47.660;19.622;2023-07-24T05:44:28;23.10;67.40
78297;DHT22;67555;47.660;19.622;2023-07-24T05:46:53;23.10;67.30
78297;DHT22;67555;47.660;19.622;2023-07-24T05:49:19;23.20;67.30
78297;DHT22;67555;47.660;19.622;2023-07-24T05:51:45;23.20;67.40
78297;DHT22;67555;47.660;19.622;2023-07-24T05:54:10;23.30;67.50
78297;DHT22;67555;47.660;19.622;2023-07-24T05:56:36;23.40;67.50
78297;DHT22;67555;47.660;19.622;2023-07-24T05:59:02;23.50;67.30
78297;DHT22;67555;47.660;19.622;2023-07-24T06:01:28;23.50;67.30
78297;DHT22;67555;47.660;19.622;2023-07-24T06:03:53;23.60;67.20
78297;DHT22;67555;47.660;19.622;2023-07-24T06:06:19;23.70;67.00
78297;DHT22;67555;47.660;19.622;2023-07-24T06:08:45;23.80;66.90
78297;DHT22;67555;47.660;19.622;2023-07-24T06:11:12;23.90;66.90
78297;DHT22;67555;47.660;19.622;2023-07-24T06:13:38;23.90;66.80
78297;DHT22;67555;47.660;19.622;2023-07-24T06:16:04;24.00;66.80
78297;DHT22;67555;47.660;19.622;2023-07-24T06:18:30;24.00;66.70
78297;DHT22;67555;47.660;19.622;2023-07-24T06:20:55;24.20;66.60
78297;DHT22;67555;47.660;19.622;2023-07-24T06:23:21;24.20;66.50
78297;DHT22;67555;47.660;19.622;2023-07-24T06:25:47;24.40;66.40
78297;DHT22;67555;47.660;19.622;2023-07-24T06:28:12;24.40;66.30
78297;DHT22;67555;47.660;19.622;2023-07-24T06:30:39;24.50;66.10
78297;DHT22;67555;47.660;19.622;2023-07-24T06:33:04;24.60;66.10
78297;DHT22;67555;47.660;19.622;2023-07-24T06:35:30;24.70;66.00
78297;DHT22;67555;47.660;19.622;2023-07-24T06:37:56;24.80;65.90
78297;DHT22;67555;47.660;19.622;2023-07-24T06:40:22;24.80;65.90
78297;DHT22;67555;47.660;19.622;2023-07-24T06:42:48;25.00;65.80
78297;DHT22;67555;47.660;19.622;2023-07-24T06:45:13;25.00;65.70
78297;DHT22;67555;47.660;19.622;2023-07-24T06:47:39;25.20;65.60
78297;DHT22;67555;47.660;19.622;2023-07-24T06:50:05;25.30;65.40
78297;DHT22;67555;47.660;19.622;2023-07-24T06:52:33;25.40;65.30
78297;DHT22;67555;47.660;19.622;2023-07-24T06:54:59;25.50;65.10
78297;DHT22;67555;47.660;19.622;2023-07-24T06:57:25;25.50;65.10
78297;DHT22;67555;47.660;19.622;2023-07-24T06:59:51;25.60;65.10
78297;DHT22;67555;47.660;19.622;2023-07-24T07:02:16;25.80;65.00
78297;DHT22;67555;47.660;19.622;2023-07-24T07:04:42;25.80;64.90
78297;DHT22;67555;47.660;19.622;2023-07-24T07:07:08;25.90;64.90
78297;DHT22;67555;47.660;19.622;2023-07-24T07:09:34;26.00;64.80
78297;DHT22;67555;47.660;19.622;2023-07-24T07:11:59;26.00;64.70
78297;DHT22;67555;47.660;19.622;2023-07-24T07:14:25;26.10;64.60
78297;DHT22;67555;47.660;19.622;2023-07-24T07:16:51;26.20;64.60
78297;DHT22;67555;47.660;19.622;2023-07-24T07:19:16;26.30;64.50
78297;DHT22;67555;47.660;19.622;2023-07-24T07:21:42;26.40;64.30
78297;DHT22;67555;47.660;19.622;2023-07-24T07:24:08;26.50;64.10
78297;DHT22;67555;47.660;19.622;2023-07-24T07:26:34;26.60;63.80
78297;DHT22;67555;47.660;19.622;2023-07-24T07:28:59;26.70;63.60
78297;DHT22;67555;47.660;19.622;2023-07-24T07:31:25;26.80;63.50
78297;DHT22;67555;47.660;19.622;2023-07-24T07:33:51;26.90;63.40
78297;DHT22;67555;47.660;19.622;2023-07-24T07:36:17;27.00;63.30
78297;DHT22;67555;47.660;19.622;2023-07-24T07:38:48;27.10;63.10
78297;DHT22;67555;47.660;19.622;2023-07-24T07:41:13;27.30;62.80
78297;DHT22;67555;47.660;19.622;2023-07-24T07:43:39;27.40;62.60
78297;DHT22;67555;47.660;19.622;2023-07-24T07:46:05;27.40;62.50
78297;DHT22;67555;47.660;19.622;2023-07-24T07:48:31;27.50;62.20
78297;DHT22;67555;47.660;19.622;2023-07-24T07:50:58;27.70;62.00
78297;DHT22;67555;47.660;19.622;2023-07-24T07:53:23;27.70;61.80
78297;DHT22;67555;47.660;19.622;2023-07-24T07:55:56;27.90;61.70
78297;DHT22;67555;47.660;19.622;2023-07-24T07:58:23;28.00;61.60
78297;DHT22;67555;47.660;19.622;2023-07-24T08:00:48;28.10;61.30
78297;DHT22;67555;47.660;19.622;2023-07-24T08:03:14;28.30;61.00
78297;DHT22;67555;47.660;19.622;2023-07-24T08:05:40;28.30;61.00
78297;DHT22;67555;47.660;19.622;2023-07-24T08:08:06;28.40;60.90
78297;DHT22;67555;47.660;19.622;2023-07-24T08:10:31;28.50;60.70
78297;DHT22;67555;47.660;19.622;2023-07-24T08:12:57;28.60;60.70
78297;DHT22;67555;47.660;19.622;2023-07-24T08:15:23;28.70;60.60
78297;DHT22;67555;47.660;19.622;2023-07-24T08:17:48;28.80;60.20
78297;DHT22;67555;47.660;19.622;2023-07-24T08:20:14;28.90;60.00
78297;DHT22;67555;47.660;19.622;2023-07-24T08:22:40;29.00;59.80
78297;DHT22;67555;47.660;19.622;2023-07-24T08:25:06;29.10;59.80
78297;DHT22;67555;47.660;19.622;2023-07-24T08:27:32;29.20;59.50
78297;DHT22;67555;47.660;19.622;2023-07-24T08:29:58;29.40;59.20
78297;DHT22;67555;47.660;19.622;2023-07-24T08:32:23;29.50;59.10
78297;DHT22;67555;47.660;19.622;2023-07-24T08:34:49;29.60;59.00
78297;DHT22;67555;47.660;19.622;2023-07-24T08:37:15;29.70;58.50
78297;DHT22;67555;47.660;19.622;2023-07-24T08:39:40;29.80;58.10
78297;DHT22;67555;47.660;19.622;2023-07-24T08:42:10;29.90;57.70
78297;DHT22;67555;47.660;19.622;2023-07-24T08:44:37;30.00;57.30
78297;DHT22;67555;47.660;19.622;2023-07-24T08:47:10;30.10;57.10
78297;DHT22;67555;47.660;19.622;2023-07-24T08:49:39;30.10;56.80
78297;DHT22;67555;47.660;19.622;2023-07-24T08:52:08;30.20;56.50
78297;DHT22;67555;47.660;19.622;2023-07-24T08:54:38;30.20;56.40
78297;DHT22;67555;47.660;19.622;2023-07-24T08:57:07;30.30;56.20
78297;DHT22;67555;47.660;19.622;2023-07-24T08:59:34;30.30;55.70
78297;DHT22;67555;47.660;19.622;2023-07-24T09:02:00;30.30;55.10
78297;DHT22;67555;47.660;19.622;2023-07-24T09:04:26;30.20;54.30
78297;DHT22;67555;47.660;19.622;2023-07-24T09:06:52;30.20;54.00
78297;DHT22;67555;47.660;19.622;2023-07-24T09:09:18;30.30;53.70
78297;DHT22;67555;47.660;19.622;2023-07-24T09:11:51;30.30;53.10
78297;DHT22;67555;47.660;19.622;2023-07-24T09:14:24;30.30;52.60
78297;DHT22;67555;47.660;19.622;2023-07-24T09:17:04;30.40;51.90
78297;DHT22;67555;47.660;19.622;2023-07-24T09:19:30;30.50;50.90
78297;DHT22;67555;47.660;19.622;2023-07-24T09:22:10;30.50;50.40
78297;DHT22;67555;47.660;19.622;2023-07-24T09:24:36;30.50;49.60
78297;DHT22;67555;47.660;19.622;2023-07-24T09:27:05;30.60;49.10
78297;DHT22;67555;47.660;19.622;2023-07-24T09:29:32;30.70;48.80
78297;DHT22;67555;47.660;19.622;2023-07-24T09:31:59;30.70;48.40
78297;DHT22;67555;47.660;19.622;2023-07-24T09:34:25;30.80;48.20
78297;DHT22;67555;47.660;19.622;2023-07-24T09:36:53;30.80;47.90
78297;DHT22;67555;47.660;19.622;2023-07-24T09:39:24;30.90;47.30
78297;DHT22;67555;47.660;19.622;2023-07-24T09:41:49;30.90;46.80
78297;DHT22;67555;47.660;19.622;2023-07-24T09:44:15;31.00;46.90
78297;DHT22;67555;47.660;19.622;2023-07-24T09:46:43;31.10;46.30
78297;DHT22;67555;47.660;19.622;2023-07-24T09:49:09;31.10;45.70
78297;DHT22;67555;47.660;19.622;2023-07-24T09:51:35;31.20;45.50
78297;DHT22;67555;47.660;19.622;2023-07-24T09:54:20;31.20;45.10
78297;DHT22;67555;47.660;19.622;2023-07-24T09:56:47;31.30;44.80
78297;DHT22;67555;47.660;19.622;2023-07-24T09:59:15;31.40;44.60
78297;DHT22;67555;47.660;19.622;2023-07-24T10:01:40;31.40;44.50
78297;DHT22;67555;47.660;19.622;2023-07-24T10:04:09;31.50;44.30
78297;DHT22;67555;47.660;19.622;2023-07-24T10:06:35;31.50;43.90
78297;DHT22;67555;47.660;19.622;2023-07-24T10:09:01;31.50;43.70
78297;DHT22;67555;47.660;19.622;2023-07-24T10:11:29;31.60;43.30
78297;DHT22;67555;47.660;19.622;2023-07-24T10:13:55;31.60;43.30
78297;DHT22;67555;47.660;19.622;2023-07-24T10:16:21;31.60;43.20
78297;DHT22;67555;47.660;19.622;2023-07-24T10:18:46;31.70;42.90
78297;DHT22;67555;47.660;19.622;2023-07-24T10:21:13;31.70;42.70
78297;DHT22;67555;47.660;19.622;2023-07-24T10:23:44;31.70;42.60
78297;DHT22;67555;47.660;19.622;2023-07-24T10:26:11;31.80;42.60
78297;DHT22;67555;47.660;19.622;2023-07-24T10:28:39;31.90;42.60
78297;DHT22;67555;47.660;19.622;2023-07-24T10:31:22;32.00;42.00
78297;DHT22;67555;47.660;19.622;2023-07-24T10:33:48;32.00;41.50
78297;DHT22;67555;47.660;19.622;2023-07-24T10:36:18;32.00;41.20
78297;DHT22;67555;47.660;19.622;2023-07-24T10:38:46;32.10;40.80
78297;DHT22;67555;47.660;19.622;2023-07-24T10:41:13;32.10;41.00
78297;DHT22;67555;47.660;19.622;2023-07-24T10:43:45;32.20;41.20
78297;DHT22;67555;47.660;19.622;2023-07-24T10:46:12;32.20;41.40
78297;DHT22;67555;47.660;19.622;2023-07-24T10:48:46;32.30;41.70
78297;DHT22;67555;47.660;19.622;2023-07-24T10:51:12;32.40;41.20
78297;DHT22;67555;47.660;19.622;2023-07-24T10:53:43;32.40;41.20
78297;DHT22;67555;47.660;19.622;2023-07-24T10:56:09;32.50;41.20
78297;DHT22;67555;47.660;19.622;2023-07-24T10:58:35;32.50;41.20
78297;DHT22;67555;47.660;19.622;2023-07-24T11:01:06;32.60;41.20
78297;DHT22;67555;47.660;19.622;2023-07-24T11:03:35;32.80;41.20
78297;DHT22;67555;47.660;19.622;2023-07-24T11:06:02;32.80;41.30
78297;DHT22;67555;47.660;19.622;2023-07-24T11:08:28;33.00;40.90
78297;DHT22;67555;47.660;19.622;2023-07-24T11:10:56;33.00;40.80
78297;DHT22;67555;47.660;19.622;2023-07-24T11:13:26;33.00;40.90
78297;DHT22;67555;47.660;19.622;2023-07-24T11:15:53;33.10;40.80
78297;DHT22;67555;47.660;19.622;2023-07-24T11:18:19;33.20;40.40
78297;DHT22;67555;47.660;19.622;2023-07-24T11:20:55;33.20;40.10
78297;DHT22;67555;47.660;19.622;2023-07-24T11:23:22;33.30;39.90
78297;DHT22;67555;47.660;19.622;2023-07-24T11:25:50;33.40;39.90
78297;DHT22;67555;47.660;19.622;2023-07-24T11:28:18;33.50;39.70
78297;DHT22;67555;47.660;19.622;2023-07-24T11:30:44;33.50;39.60
78297;DHT22;67555;47.660;19.622;2023-07-24T11:33:11;33.60;39.40
78297;DHT22;67555;47.660;19.622;2023-07-24T11:35:38;33.70;39.10
78297;DHT22;67555;47.660;19.622;2023-07-24T11:38:05;33.80;38.70
78297;DHT22;67555;47.660;19.622;2023-07-24T11:43:02;33.90;38.30
78297;DHT22;67555;47.660;19.622;2023-07-24T11:45:39;34.00;38.40
78297;DHT22;67555;47.660;19.622;2023-07-24T11:48:09;34.10;38.50
78297;DHT22;67555;47.660;19.622;2023-07-24T11:50:56;34.20;38.20
78297;DHT22;67555;47.660;19.622;2023-07-24T11:53:26;34.20;38.00
78297;DHT22;67555;47.660;19.622;2023-07-24T11:55:53;34.20;37.90
78297;DHT22;67555;47.660;19.622;2023-07-24T11:58:19;34.30;37.60
78297;DHT22;67555;47.660;19.622;2023-07-24T12:00:49;34.20;37.20
78297;DHT22;67555;47.660;19.622;2023-07-24T12:03:27;34.00;36.90
78297;DHT22;67555;47.660;19.622;2023-07-24T12:05:53;33.90;36.80
78297;DHT22;67555;47.660;19.622;2023-07-24T12:08:20;33.90;37.20
78297;DHT22;67555;47.660;19.622;2023-07-24T12:10:49;34.00;37.50
78297;DHT22;67555;47.660;19.622;2023-07-24T12:13:14;34.30;37.60
78297;DHT22;67555;47.660;19.622;2023-07-24T12:15:40;34.60;37.20
78297;DHT22;67555;47.660;19.622;2023-07-24T12:18:06;34.80;36.80
78297;DHT22;67555;47.660;19.622;2023-07-24T12:20:32;35.00;36.60
78297;DHT22;67555;47.660;19.622;2023-07-24T12:22:59;35.10;36.30
78297;DHT22;67555;47.660;19.622;2023-07-24T12:25:25;35.20;36.30
78297;DHT22;67555;47.660;19.622;2023-07-24T12:27:51;35.30;36.00
78297;DHT22;67555;47.660;19.622;2023-07-24T12:30:16;35.30;36.00
78297;DHT22;67555;47.660;19.622;2023-07-24T12:32:42;35.30;35.90
78297;DHT22;67555;47.660;19.622;2023-07-24T12:35:09;35.30;35.90
78297;DHT22;67555;47.660;19.622;2023-07-24T12:37:35;35.30;35.50
78297;DHT22;67555;47.660;19.622;2023-07-24T12:40:01;35.40;35.70
78297;DHT22;67555;47.660;19.622;2023-07-24T12:42:27;35.50;36.00
78297;DHT22;67555;47.660;19.622;2023-07-24T12:44:53;35.70;35.70
78297;DHT22;67555;47.660;19.622;2023-07-24T12:47:19;35.80;35.30
78297;DHT22;67555;47.660;19.622;2023-07-24T12:49:45;36.00;34.90
78297;DHT22;67555;47.660;19.622;2023-07-24T12:52:11;36.10;34.70
78297;DHT22;67555;47.660;19.622;2023-07-24T12:54:36;36.40;34.10
78297;DHT22;67555;47.660;19.622;2023-07-24T12:57:02;36.50;33.60
78297;DHT22;67555;47.660;19.622;2023-07-24T12:59:28;36.70;33.00
78297;DHT22;67555;47.660;19.622;2023-07-24T13:01:54;36.70;32.30
78297;DHT22;67555;47.660;19.622;2023-07-24T13:04:20;36.60;32.10
78297;DHT22;67555;47.660;19.622;2023-07-24T13:06:46;36.40;32.10
78297;DHT22;67555;47.660;19.622;2023-07-24T13:09:12;36.30;32.10
78297;DHT22;67555;47.660;19.622;2023-07-24T13:11:37;36.40;32.10
78297;DHT22;67555;47.660;19.622;2023-07-24T13:14:03;36.50;32.40
78297;DHT22;67555;47.660;19.622;2023-07-24T13:16:29;36.70;32.30
78297;DHT22;67555;47.660;19.622;2023-07-24T13:18:55;36.90;31.90
78297;DHT22;67555;47.660;19.622;2023-07-24T13:21:22;37.00;31.60
78297;DHT22;67555;47.660;19.622;2023-07-24T13:23:48;37.20;31.70
78297;DHT22;67555;47.660;19.622;2023-07-24T13:26:15;37.20;31.80
78297;DHT22;67555;47.660;19.622;2023-07-24T13:28:41;37.20;31.80
78297;DHT22;67555;47.660;19.622;2023-07-24T13:31:18;37.10;31.90
78297;DHT22;67555;47.660;19.622;2023-07-24T13:33:44;37.00;31.30
78297;DHT22;67555;47.660;19.622;2023-07-24T13:36:10;36.70;31.60
78297;DHT22;67555;47.660;19.622;2023-07-24T13:38:36;36.50;31.70
78297;DHT22;67555;47.660;19.622;2023-07-24T13:41:03;36.30;31.80
78297;DHT22;67555;47.660;19.622;2023-07-24T13:43:30;36.10;32.20
78297;DHT22;67555;47.660;19.622;2023-07-24T13:45:56;35.90;32.40
78297;DHT22;67555;47.660;19.622;2023-07-24T13:48:22;35.70;32.00
78297;DHT22;67555;47.660;19.622;2023-07-24T13:50:49;35.60;31.80
78297;DHT22;67555;47.660;19.622;2023-07-24T13:53:15;35.40;31.90
78297;DHT22;67555;47.660;19.622;2023-07-24T13:55:41;35.30;32.30
78297;DHT22;67555;47.660;19.622;2023-07-24T13:58:07;35.20;32.60
78297;DHT22;67555;47.660;19.622;2023-07-24T14:00:33;35.10;32.80
78297;DHT22;67555;47.660;19.622;2023-07-24T14:02:59;35.00;33.00
78297;DHT22;67555;47.660;19.622;2023-07-24T14:05:25;35.00;32.70
78297;DHT22;67555;47.660;19.622;2023-07-24T14:07:51;35.00;32.50
78297;DHT22;67555;47.660;19.622;2023-07-24T14:10:17;34.80;32.40
78297;DHT22;67555;47.660;19.622;2023-07-24T14:12:43;34.80;32.40
78297;DHT22;67555;47.660;19.622;2023-07-24T14:15:09;34.70;32.40
78297;DHT22;67555;47.660;19.622;2023-07-24T14:17:35;34.70;32.70
78297;DHT22;67555;47.660;19.622;2023-07-24T14:20:02;34.70;32.90
78297;DHT22;67555;47.660;19.622;2023-07-24T14:22:28;34.70;32.90
78297;DHT22;67555;47.660;19.622;2023-07-24T14:24:54;34.70;33.00
78297;DHT22;67555;47.660;19.622;2023-07-24T14:27:20;34.60;32.90
78297;DHT22;67555;47.660;19.622;2023-07-24T14:29:46;34.60;32.90
78297;DHT22;67555;47.660;19.622;2023-07-24T14:32:11;34.50;33.20
78297;DHT22;67555;47.660;19.622;2023-07-24T14:34:37;34.50;33.20
78297;DHT22;67555;47.660;19.622;2023-07-24T14:37:04;34.50;33.10
78297;DHT22;67555;47.660;19.622;2023-07-24T14:39:30;34.50;33.30
78297;DHT22;67555;47.660;19.622;2023-07-24T14:41:56;34.50;33.50
78297;DHT22;67555;47.660;19.622;2023-07-24T14:44:22;34.50;33.60
78297;DHT22;67555;47.660;19.622;2023-07-24T14:46:48;34.50;33.60
78297;DHT22;67555;47.660;19.622;2023-07-24T14:49:14;34.40;33.70
78297;DHT22;67555;47.660;19.622;2023-07-24T14:51:39;34.40;34.00
78297;DHT22;67555;47.660;19.622;2023-07-24T14:54:06;34.40;34.10
78297;DHT22;67555;47.660;19.622;2023-07-24T14:56:32;34.40;34.40
78297;DHT22;67555;47.660;19.622;2023-07-24T14:58:58;34.40;34.70
78297;DHT22;67555;47.660;19.622;2023-07-24T15:01:24;34.40;34.70
78297;DHT22;67555;47.660;19.622;2023-07-24T15:03:53;34.40;34.70
78297;DHT22;67555;47.660;19.622;2023-07-24T15:06:19;34.40;34.80
78297;DHT22;67555;47.660;19.622;2023-07-24T15:08:45;34.40;34.80
78297;DHT22;67555;47.660;19.622;2023-07-24T15:11:11;34.40;34.90
78297;DHT22;67555;47.660;19.622;2023-07-24T15:13:39;34.30;35.00
78297;DHT22;67555;47.660;19.622;2023-07-24T15:16:05;34.40;34.80
78297;DHT22;67555;47.660;19.622;2023-07-24T15:18:31;34.40;35.10
78297;DHT22;67555;47.660;19.622;2023-07-24T15:20:57;34.40;35.10